KLM45J EHAM-LPPR
Flight info
| Callsign | KLM45J |
|---|---|
| Flight time | N/A |
| Altitude | 36000 |
| Route | WOODY N872 MEDIL DCT KOVIN/N0449F350 DCT NIDUV DCT KIHVI UN872 KURIS/N0452F370 UN872 ERIGA UZ218 FUJTI DCT ATLEN DCT INSID T326 ASPOR |
| Aircraft | A321/M-SDE3FGHIRWY/LB1 |
Departure
| Time | 2026-04-27 18:28 |
|---|---|
| Airport | Amsterdam Airport Schiphol (EHAM) |
Arrival
| Time | N/A |
|---|---|
| Airport | Francisco de Sá Carneiro Airport (LPPR) |
| Time | Latitude | Longitude | Altitude | Speed | Heading |
|---|---|---|---|---|---|
| 2026-04-27 18:00 | 52.31141 | 4.77131 | -1 ft | 0 kts | 3° |
| 2026-04-27 18:05 | 52.31140 | 4.77131 | -1 ft | 0 kts | 3° |
| 2026-04-27 18:12 | 52.31134 | 4.77131 | -1 ft | 4 kts | 3° |
| 2026-04-27 18:13 | 52.31109 | 4.77129 | -1 ft | 3 kts | 2° |
| 2026-04-27 18:13 | 52.31086 | 4.77134 | -1 ft | 4 kts | 314° |
| 2026-04-27 18:13 | 52.31077 | 4.77170 | -1 ft | 4 kts | 274° |
| 2026-04-27 18:13 | 52.31076 | 4.77185 | -1 ft | 0 kts | 273° |
| 2026-04-27 18:15 | 52.31076 | 4.77184 | -1 ft | 1 kts | 273° |
| 2026-04-27 18:16 | 52.31079 | 4.77127 | -1 ft | 8 kts | 273° |
| 2026-04-27 18:16 | 52.31082 | 4.77032 | -1 ft | 9 kts | 273° |
| 2026-04-27 18:16 | 52.31115 | 4.76945 | -1 ft | 13 kts | 336° |
| 2026-04-27 18:16 | 52.31212 | 4.77008 | -1 ft | 16 kts | 33° |
| 2026-04-27 18:17 | 52.31304 | 4.77107 | -1 ft | 16 kts | 33° |
| 2026-04-27 18:17 | 52.31397 | 4.77188 | -1 ft | 15 kts | 9° |
| 2026-04-27 18:17 | 52.31499 | 4.77199 | -1 ft | 14 kts | 3° |
| 2026-04-27 18:17 | 52.31568 | 4.77127 | -1 ft | 13 kts | 276° |
| 2026-04-27 18:18 | 52.31564 | 4.76968 | -1 ft | 14 kts | 266° |
| 2026-04-27 18:18 | 52.31558 | 4.76799 | -1 ft | 15 kts | 267° |
| 2026-04-27 18:18 | 52.31552 | 4.76618 | -1 ft | 16 kts | 266° |
| 2026-04-27 18:18 | 52.31545 | 4.76425 | -1 ft | 18 kts | 266° |
| 2026-04-27 18:19 | 52.31538 | 4.76218 | -1 ft | 19 kts | 266° |
| 2026-04-27 18:19 | 52.31530 | 4.75999 | -1 ft | 20 kts | 267° |
| 2026-04-27 18:19 | 52.31522 | 4.75765 | -1 ft | 21 kts | 267° |
| 2026-04-27 18:19 | 52.31514 | 4.75514 | -1 ft | 23 kts | 266° |
| 2026-04-27 18:20 | 52.31505 | 4.75260 | -1 ft | 22 kts | 266° |
| 2026-04-27 18:20 | 52.31497 | 4.75015 | -1 ft | 21 kts | 267° |
| 2026-04-27 18:20 | 52.31489 | 4.74782 | -1 ft | 20 kts | 267° |
| 2026-04-27 18:20 | 52.31482 | 4.74559 | -1 ft | 19 kts | 267° |
| 2026-04-27 18:21 | 52.31476 | 4.74373 | -1 ft | 13 kts | 269° |
| 2026-04-27 18:21 | 52.31539 | 4.74298 | -1 ft | 13 kts | 1° |
| 2026-04-27 18:21 | 52.31640 | 4.74308 | -1 ft | 16 kts | 3° |
| 2026-04-27 18:21 | 52.31764 | 4.74319 | -1 ft | 19 kts | 4° |
| 2026-04-27 18:22 | 52.31903 | 4.74332 | -1 ft | 20 kts | 3° |
| 2026-04-27 18:22 | 52.32021 | 4.74291 | -1 ft | 17 kts | 301° |
| 2026-04-27 18:22 | 52.32035 | 4.74091 | -1 ft | 19 kts | 273° |
| 2026-04-27 18:22 | 52.32043 | 4.73869 | -1 ft | 20 kts | 273° |
| 2026-04-27 18:23 | 52.32051 | 4.73642 | -1 ft | 21 kts | 274° |
| 2026-04-27 18:23 | 52.32071 | 4.73408 | -1 ft | 21 kts | 291° |
| 2026-04-27 18:23 | 52.32178 | 4.73241 | -1 ft | 22 kts | 325° |
| 2026-04-27 18:23 | 52.32289 | 4.73074 | -1 ft | 21 kts | 319° |
| 2026-04-27 18:24 | 52.32398 | 4.72921 | -1 ft | 20 kts | 319° |
| 2026-04-27 18:24 | 52.32504 | 4.72772 | -1 ft | 20 kts | 319° |
| 2026-04-27 18:24 | 52.32607 | 4.72628 | -1 ft | 19 kts | 320° |
| 2026-04-27 18:24 | 52.32705 | 4.72472 | -1 ft | 22 kts | 311° |
| 2026-04-27 18:25 | 52.32816 | 4.72268 | -1 ft | 24 kts | 311° |
| 2026-04-27 18:25 | 52.32926 | 4.72064 | -1 ft | 24 kts | 311° |
| 2026-04-27 18:25 | 52.33033 | 4.71865 | -1 ft | 23 kts | 311° |
| 2026-04-27 18:25 | 52.33126 | 4.71692 | -1 ft | 19 kts | 309° |
| 2026-04-27 18:26 | 52.33131 | 4.71505 | -1 ft | 17 kts | 236° |
| 2026-04-27 18:26 | 52.33048 | 4.71378 | -1 ft | 16 kts | 221° |
| 2026-04-27 18:26 | 52.32969 | 4.71264 | -1 ft | 15 kts | 221° |
| 2026-04-27 18:26 | 52.32896 | 4.71159 | -1 ft | 13 kts | 223° |
| 2026-04-27 18:27 | 52.32862 | 4.71025 | -2 ft | 13 kts | 270° |
| 2026-04-27 18:27 | 52.32897 | 4.70903 | -2 ft | 12 kts | 338° |
| 2026-04-27 18:27 | 52.32939 | 4.70899 | -3 ft | 0 kts | 2° |
| 2026-04-27 18:27 | 52.32949 | 4.70900 | -3 ft | 10 kts | 2° |
| 2026-04-27 18:28 | 52.33263 | 4.70929 | -4 ft | 81 kts | 3° |
| 2026-04-27 18:28 | 52.34024 | 4.71000 | -2 ft | 136 kts | 3° |
| 2026-04-27 18:28 | 52.35085 | 4.71092 | 224 ft | 158 kts | 6° |
| 2026-04-27 18:28 | 52.36177 | 4.71195 | 879 ft | 157 kts | 6° |
| 2026-04-27 18:29 | 52.37283 | 4.71300 | 1395 ft | 165 kts | 6° |
| 2026-04-27 18:29 | 52.38501 | 4.71419 | 1593 ft | 186 kts | 6° |
| 2026-04-27 18:29 | 52.39860 | 4.71586 | 1743 ft | 205 kts | 11° |
| 2026-04-27 18:29 | 52.41168 | 4.72539 | 2018 ft | 212 kts | 41° |
| 2026-04-27 18:30 | 52.42037 | 4.74503 | 2538 ft | 218 kts | 69° |
| 2026-04-27 18:30 | 52.42198 | 4.76986 | 3137 ft | 226 kts | 97° |
| 2026-04-27 18:30 | 52.41529 | 4.79336 | 3723 ft | 235 kts | 129° |
| 2026-04-27 18:30 | 52.40157 | 4.80769 | 4298 ft | 244 kts | 164° |
| 2026-04-27 18:31 | 52.38459 | 4.81261 | 5090 ft | 246 kts | 171° |
| 2026-04-27 18:31 | 52.36709 | 4.81706 | 5448 ft | 269 kts | 171° |
| 2026-04-27 18:31 | 52.34800 | 4.82198 | 6128 ft | 277 kts | 171° |
| 2026-04-27 18:31 | 52.32871 | 4.82707 | 6883 ft | 283 kts | 170° |
| 2026-04-27 18:32 | 52.30946 | 4.83247 | 7690 ft | 284 kts | 170° |
| 2026-04-27 18:32 | 52.28994 | 4.83812 | 8569 ft | 285 kts | 171° |
| 2026-04-27 18:32 | 52.27036 | 4.84384 | 9404 ft | 287 kts | 172° |
| 2026-04-27 18:32 | 52.25058 | 4.84777 | 10225 ft | 287 kts | 181° |
| 2026-04-27 18:33 | 52.23009 | 4.84748 | 10591 ft | 305 kts | 183° |
| 2026-04-27 18:33 | 52.20802 | 4.84699 | 10756 ft | 328 kts | 182° |
| 2026-04-27 18:33 | 52.18465 | 4.84642 | 11130 ft | 342 kts | 183° |
| 2026-04-27 18:33 | 52.16059 | 4.84583 | 11755 ft | 348 kts | 182° |
| 2026-04-27 18:34 | 52.13625 | 4.84529 | 12431 ft | 352 kts | 182° |
| 2026-04-27 18:34 | 52.11063 | 4.84478 | 13107 ft | 357 kts | 182° |
| 2026-04-27 18:34 | 52.08657 | 4.84432 | 13755 ft | 361 kts | 182° |
| 2026-04-27 18:34 | 52.06129 | 4.84379 | 14379 ft | 365 kts | 182° |
| 2026-04-27 18:35 | 52.03579 | 4.84200 | 15000 ft | 367 kts | 189° |
| 2026-04-27 18:35 | 52.01087 | 4.83317 | 15629 ft | 367 kts | 200° |
| 2026-04-27 18:35 | 51.98699 | 4.81677 | 16276 ft | 367 kts | 208° |
| 2026-04-27 18:35 | 51.96436 | 4.79885 | 16910 ft | 369 kts | 208° |
| 2026-04-27 18:36 | 51.94118 | 4.78060 | 17532 ft | 372 kts | 208° |
| 2026-04-27 18:36 | 51.91784 | 4.76234 | 18165 ft | 373 kts | 208° |
| 2026-04-27 18:36 | 51.89437 | 4.74400 | 18750 ft | 375 kts | 208° |
| 2026-04-27 18:36 | 51.87082 | 4.72560 | 19287 ft | 377 kts | 208° |
| 2026-04-27 18:37 | 51.84708 | 4.70711 | 19816 ft | 379 kts | 208° |
| 2026-04-27 18:37 | 51.82324 | 4.68855 | 20338 ft | 381 kts | 209° |
| 2026-04-27 18:37 | 51.79934 | 4.66993 | 20867 ft | 383 kts | 209° |
| 2026-04-27 18:37 | 51.77525 | 4.65118 | 21389 ft | 385 kts | 209° |
| 2026-04-27 18:38 | 51.75075 | 4.63216 | 21913 ft | 387 kts | 209° |
| 2026-04-27 18:38 | 51.72667 | 4.61346 | 22439 ft | 389 kts | 209° |
| 2026-04-27 18:38 | 51.70218 | 4.59446 | 22889 ft | 392 kts | 209° |
| 2026-04-27 18:38 | 51.67751 | 4.57532 | 23348 ft | 394 kts | 209° |
| 2026-04-27 18:39 | 51.65265 | 4.55606 | 23806 ft | 397 kts | 209° |
| 2026-04-27 18:39 | 51.62771 | 4.53680 | 24240 ft | 399 kts | 209° |
| 2026-04-27 18:39 | 51.60267 | 4.51752 | 24634 ft | 400 kts | 209° |
| 2026-04-27 18:39 | 51.57743 | 4.49811 | 25039 ft | 402 kts | 209° |
| 2026-04-27 18:40 | 51.55214 | 4.47866 | 25439 ft | 404 kts | 209° |
| 2026-04-27 18:40 | 51.52703 | 4.45937 | 25823 ft | 406 kts | 209° |
| 2026-04-27 18:40 | 51.50154 | 4.43985 | 26216 ft | 407 kts | 209° |
| 2026-04-27 18:40 | 51.47587 | 4.42021 | 26560 ft | 410 kts | 209° |
| 2026-04-27 18:41 | 51.45011 | 4.40048 | 26934 ft | 412 kts | 209° |
| 2026-04-27 18:41 | 51.42422 | 4.38067 | 27317 ft | 413 kts | 209° |
| 2026-04-27 18:41 | 51.39822 | 4.36082 | 27691 ft | 415 kts | 209° |
| 2026-04-27 18:41 | 51.37207 | 4.34093 | 28066 ft | 417 kts | 209° |
| 2026-04-27 18:42 | 51.34574 | 4.32093 | 28427 ft | 418 kts | 209° |
| 2026-04-27 18:42 | 51.32800 | 4.30746 | 28664 ft | 419 kts | 209° |
| 2026-04-27 18:42 | 51.29289 | 4.28082 | 29111 ft | 422 kts | 209° |
| 2026-04-27 18:42 | 51.26631 | 4.26066 | 29460 ft | 423 kts | 209° |
| 2026-04-27 18:43 | 51.23962 | 4.24041 | 29830 ft | 424 kts | 210° |
| 2026-04-27 18:43 | 51.21300 | 4.22019 | 30214 ft | 424 kts | 210° |
| 2026-04-27 18:43 | 51.18639 | 4.20004 | 30576 ft | 423 kts | 210° |
| 2026-04-27 18:43 | 51.15948 | 4.18081 | 30948 ft | 425 kts | 205° |
| 2026-04-27 18:44 | 51.13176 | 4.16551 | 31302 ft | 426 kts | 204° |
| 2026-04-27 18:44 | 51.10374 | 4.15023 | 31666 ft | 426 kts | 204° |
| 2026-04-27 18:44 | 51.07559 | 4.13482 | 32021 ft | 425 kts | 204° |
| 2026-04-27 18:44 | 51.04759 | 4.11946 | 32367 ft | 425 kts | 205° |
| 2026-04-27 18:45 | 51.01963 | 4.10416 | 32715 ft | 425 kts | 205° |
| 2026-04-27 18:45 | 50.99168 | 4.08889 | 33070 ft | 425 kts | 205° |
| 2026-04-27 18:45 | 50.96379 | 4.07366 | 33424 ft | 424 kts | 205° |
| 2026-04-27 18:45 | 50.93583 | 4.05843 | 33770 ft | 424 kts | 205° |
| 2026-04-27 18:46 | 50.90792 | 4.04328 | 34125 ft | 424 kts | 205° |
| 2026-04-27 18:46 | 50.88004 | 4.02817 | 34411 ft | 424 kts | 205° |
| 2026-04-27 18:46 | 50.85238 | 4.01217 | 34657 ft | 423 kts | 207° |
| 2026-04-27 18:46 | 50.82501 | 3.99496 | 34887 ft | 423 kts | 208° |
| 2026-04-27 18:47 | 50.79779 | 3.97705 | 35098 ft | 423 kts | 208° |
| 2026-04-27 18:47 | 50.77069 | 3.95901 | 35381 ft | 423 kts | 208° |
| 2026-04-27 18:47 | 50.74350 | 3.94102 | 35624 ft | 424 kts | 208° |
| 2026-04-27 18:47 | 50.71620 | 3.92321 | 35841 ft | 425 kts | 208° |
| 2026-04-27 18:48 | 50.68877 | 3.90550 | 36061 ft | 426 kts | 207° |
| 2026-04-27 18:48 | 50.66120 | 3.88788 | 36274 ft | 427 kts | 207° |
| 2026-04-27 18:48 | 50.63364 | 3.87038 | 36482 ft | 428 kts | 207° |
| 2026-04-27 18:48 | 50.60586 | 3.85286 | 36679 ft | 430 kts | 207° |
| 2026-04-27 18:49 | 50.57848 | 3.83565 | 36842 ft | 430 kts | 207° |
| 2026-04-27 18:49 | 50.55076 | 3.81787 | 37071 ft | 430 kts | 208° |
| 2026-04-27 18:49 | 50.52322 | 3.79940 | 37178 ft | 430 kts | 208° |
| 2026-04-27 18:49 | 50.49585 | 3.78052 | 37191 ft | 429 kts | 209° |
| 2026-04-27 18:50 | 50.44127 | 3.74253 | 37190 ft | 429 kts | 209° |
| 2026-04-27 18:50 | 50.38627 | 3.70476 | 37191 ft | 429 kts | 208° |
| 2026-04-27 18:51 | 50.34072 | 3.67388 | 37189 ft | 429 kts | 208° |
| 2026-04-27 18:51 | 50.28590 | 3.63693 | 37189 ft | 429 kts | 208° |
| 2026-04-27 18:52 | 50.23114 | 3.60009 | 37189 ft | 429 kts | 208° |
| 2026-04-27 18:53 | 50.14883 | 3.54468 | 37192 ft | 429 kts | 208° |
| 2026-04-27 18:53 | 50.09401 | 3.50782 | 37165 ft | 429 kts | 208° |
| 2026-04-27 18:54 | 50.03906 | 3.47111 | 37178 ft | 430 kts | 208° |
| 2026-04-27 18:54 | 49.98430 | 3.43476 | 37186 ft | 430 kts | 208° |
| 2026-04-27 18:55 | 49.92933 | 3.39818 | 37190 ft | 430 kts | 208° |
| 2026-04-27 18:55 | 49.87432 | 3.36160 | 37178 ft | 430 kts | 208° |
| 2026-04-27 18:56 | 49.81920 | 3.32511 | 37179 ft | 430 kts | 208° |
| 2026-04-27 18:56 | 49.76406 | 3.28869 | 37184 ft | 431 kts | 208° |
| 2026-04-27 18:57 | 49.70889 | 3.25229 | 37185 ft | 431 kts | 208° |
| 2026-04-27 18:57 | 49.65379 | 3.21615 | 37173 ft | 430 kts | 208° |
| 2026-04-27 18:58 | 49.59871 | 3.18009 | 37185 ft | 429 kts | 208° |
| 2026-04-27 18:58 | 49.54376 | 3.14424 | 37187 ft | 429 kts | 208° |
| 2026-04-27 18:59 | 49.49349 | 3.09769 | 37182 ft | 417 kts | 226° |
| 2026-04-27 18:59 | 49.45767 | 3.03016 | 37173 ft | 408 kts | 243° |
| 2026-04-27 19:00 | 49.42970 | 2.95430 | 37173 ft | 407 kts | 243° |
| 2026-04-27 19:00 | 49.40156 | 2.87882 | 37186 ft | 407 kts | 242° |
| 2026-04-27 19:01 | 49.37336 | 2.80343 | 37178 ft | 407 kts | 242° |
| 2026-04-27 19:01 | 49.34510 | 2.72807 | 37188 ft | 407 kts | 242° |
| 2026-04-27 19:02 | 49.31773 | 2.65206 | 37177 ft | 407 kts | 244° |
| 2026-04-27 19:02 | 49.29121 | 2.57544 | 37172 ft | 407 kts | 244° |
| 2026-04-27 19:03 | 49.26449 | 2.49882 | 37172 ft | 407 kts | 243° |
| 2026-04-27 19:03 | 49.23756 | 2.42259 | 37183 ft | 407 kts | 243° |
| 2026-04-27 19:04 | 49.21074 | 2.34698 | 37183 ft | 407 kts | 243° |
| 2026-04-27 19:04 | 49.18336 | 2.27070 | 37183 ft | 407 kts | 242° |
| 2026-04-27 19:05 | 49.15547 | 2.19552 | 37176 ft | 407 kts | 242° |
| 2026-04-27 19:05 | 49.12742 | 2.12029 | 37170 ft | 408 kts | 242° |
| 2026-04-27 19:06 | 49.09960 | 2.04539 | 37173 ft | 408 kts | 242° |
| 2026-04-27 19:06 | 49.07541 | 1.96718 | 37172 ft | 407 kts | 246° |
| 2026-04-27 19:07 | 49.05189 | 1.88856 | 37158 ft | 407 kts | 246° |
| 2026-04-27 19:07 | 49.02828 | 1.81027 | 37185 ft | 407 kts | 246° |
| 2026-04-27 19:08 | 49.00455 | 1.73198 | 37187 ft | 407 kts | 246° |
| 2026-04-27 19:08 | 48.98127 | 1.65532 | 37181 ft | 408 kts | 246° |
| 2026-04-27 19:09 | 48.95747 | 1.57694 | 37186 ft | 409 kts | 246° |
| 2026-04-27 19:09 | 48.93344 | 1.49836 | 37190 ft | 409 kts | 246° |
| 2026-04-27 19:10 | 48.90937 | 1.41979 | 37195 ft | 410 kts | 246° |
| 2026-04-27 19:10 | 48.88521 | 1.34127 | 37199 ft | 410 kts | 246° |
| 2026-04-27 19:11 | 48.86102 | 1.26275 | 37192 ft | 411 kts | 245° |
| 2026-04-27 19:11 | 48.83672 | 1.18416 | 37198 ft | 411 kts | 245° |
| 2026-04-27 19:12 | 48.81230 | 1.10562 | 37198 ft | 412 kts | 245° |
| 2026-04-27 19:12 | 48.78793 | 1.02743 | 37206 ft | 413 kts | 245° |
| 2026-04-27 19:13 | 48.76338 | 0.94867 | 37212 ft | 413 kts | 245° |
| 2026-04-27 19:13 | 48.73748 | 0.87101 | 37214 ft | 414 kts | 239° |
| 2026-04-27 19:14 | 48.70726 | 0.79655 | 37200 ft | 415 kts | 240° |
| 2026-04-27 19:14 | 48.67717 | 0.72230 | 37201 ft | 416 kts | 240° |
| 2026-04-27 19:15 | 48.64687 | 0.64750 | 37185 ft | 417 kts | 239° |
| 2026-04-27 19:15 | 48.61649 | 0.57294 | 37205 ft | 416 kts | 239° |
| 2026-04-27 19:16 | 48.58604 | 0.49857 | 37214 ft | 416 kts | 239° |
| 2026-04-27 19:16 | 48.55556 | 0.42422 | 37205 ft | 416 kts | 239° |
| 2026-04-27 19:17 | 48.52506 | 0.34984 | 37194 ft | 417 kts | 239° |
| 2026-04-27 19:17 | 48.49447 | 0.27545 | 37199 ft | 417 kts | 239° |
| 2026-04-27 19:18 | 48.46390 | 0.20148 | 37198 ft | 418 kts | 239° |
| 2026-04-27 19:18 | 48.43315 | 0.12731 | 37188 ft | 417 kts | 239° |
| 2026-04-27 19:19 | 48.40235 | 0.05324 | 37201 ft | 417 kts | 239° |
| 2026-04-27 19:19 | 48.37156 | -0.02059 | 37197 ft | 417 kts | 239° |
| 2026-04-27 19:20 | 48.33921 | -0.09322 | 37188 ft | 418 kts | 235° |
| 2026-04-27 19:20 | 48.30405 | -0.16298 | 37181 ft | 419 kts | 233° |
| 2026-04-27 19:21 | 48.26844 | -0.23234 | 37181 ft | 419 kts | 234° |
| 2026-04-27 19:21 | 48.23341 | -0.30171 | 37187 ft | 420 kts | 234° |
| 2026-04-27 19:22 | 48.19774 | -0.37175 | 37184 ft | 419 kts | 234° |
| 2026-04-27 19:22 | 48.16246 | -0.44057 | 37188 ft | 419 kts | 234° |
| 2026-04-27 19:23 | 48.12687 | -0.50990 | 37183 ft | 419 kts | 234° |
| 2026-04-27 19:23 | 48.09133 | -0.57905 | 37183 ft | 419 kts | 234° |
| 2026-04-27 19:24 | 48.05576 | -0.64809 | 37180 ft | 418 kts | 234° |
| 2026-04-27 19:24 | 48.02042 | -0.71643 | 37180 ft | 418 kts | 234° |
| 2026-04-27 19:25 | 47.98467 | -0.78531 | 37137 ft | 421 kts | 234° |
| 2026-04-27 19:25 | 47.94868 | -0.85457 | 37137 ft | 424 kts | 233° |
| 2026-04-27 19:26 | 47.91246 | -0.92416 | 37148 ft | 424 kts | 233° |
| 2026-04-27 19:26 | 47.87617 | -0.99362 | 37157 ft | 424 kts | 233° |
| 2026-04-27 19:27 | 47.83993 | -1.06290 | 37162 ft | 424 kts | 233° |